Time;durP1;ratioP1;P1;durP2;ratioP2;P2;SDS_P1;SDS_P2;PMS_P1;PMS_P2;Temp;Humidity;BMP_temperature;BMP_pressure;BME280_temperature;BME280_humidity;BME280_pressure;Samples;Min_cycle;Max_cycle;Signal;HPM_P1;HPM_P2
2023/10/19 00:01:18;;;;;;;4.65;1.27;;;;;;;;;;4856159;29;20073;-71
2023/10/19 00:03:44;;;;;;;4.00;1.08;;;;;;;;;;4855549;29;20486;-70
2023/10/19 00:06:11;;;;;;;4.55;1.33;;;;;;;;;;4852263;29;20057;-71
2023/10/19 00:08:41;;;;;;;4.10;1.20;;;;;;;;;;4883185;29;20101;-72
2023/10/19 00:13:39;;;;;;;6.57;1.35;;;;;;;;;;4891947;29;20056;-71
2023/10/19 00:16:19;;;;;;;4.38;0.90;;;;;;;;;;4887797;29;20059;-70
2023/10/19 00:18:48;;;;;;;5.90;1.38;;;;;;;;;;4886752;29;20127;-72
2023/10/19 00:21:24;;;;;;;5.82;1.58;;;;;;;;;;4890425;29;20072;-72
2023/10/19 00:23:57;;;;;;;6.22;1.00;;;;;;;;;;4889336;29;20052;-72
2023/10/19 00:26:26;;;;;;;5.80;1.35;;;;;;;;;;4889976;29;20161;-71
2023/10/19 00:28:55;;;;;;;3.75;0.90;;;;;;;;;;4888405;29;20116;-71
2023/10/19 00:31:27;;;;;;;5.90;1.05;;;;;;;;;;4887730;29;20088;-70
2023/10/19 00:33:54;;;;;;;5.00;1.00;;;;;;;;;;4889428;29;20044;-70
2023/10/19 00:36:22;;;;;;;6.65;1.05;;;;;;;;;;4886844;29;20116;-71
2023/10/19 00:41:24;;;;;;;5.45;0.95;;;;;;;;;;4909378;29;20167;-70
2023/10/19 00:43:57;;;;;;;3.50;1.05;;;;;;;;;;4908560;29;20063;-71
2023/10/19 00:46:32;;;;;;;6.88;1.08;;;;;;;;;;4906592;29;20096;-71
2023/10/19 00:49:01;;;;;;;6.45;1.25;;;;;;;;;;4894556;29;20053;-71
2023/10/19 00:54:10;;;;;;;10.10;1.13;;;;;;;;;;4906491;29;20071;-71
2023/10/19 00:56:37;;;;;;;3.05;1.20;;;;;;;;;;4907786;29;20140;-70
2023/10/19 00:59:47;;;;;;;5.47;1.10;;;;;;;;;;4909979;29;20108;-69
2023/10/19 01:01:55;;;;;;;3.03;0.98;;;;;;;;;;4897690;29;20060;-71
2023/10/19 01:04:31;;;;;;;4.97;1.00;;;;;;;;;;4908592;29;20059;-71
2023/10/19 01:07:21;;;;;;;5.60;1.00;;;;;;;;;;4894999;29;20045;-71
2023/10/19 01:09:48;;;;;;;4.00;0.90;;;;;;;;;;4908467;29;20048;-71
2023/10/19 01:12:53;;;;;;;11.63;1.10;;;;;;;;;;4905119;29;20654;-71
2023/10/19 01:16:35;;;;;;;5.13;0.90;;;;;;;;;;4905288;29;20180;-71
2023/10/19 01:20:22;;;;;;;3.60;0.95;;;;;;;;;;4908318;29;20141;-72
2023/10/19 01:24:00;;;;;;;3.50;1.17;;;;;;;;;;4908345;29;20048;-73
2023/10/19 01:27:41;;;;;;;5.18;1.02;;;;;;;;;;4910914;29;20056;-70
2023/10/19 01:34:50;;;;;;;3.85;0.95;;;;;;;;;;4912450;29;20044;-71
2023/10/19 01:38:31;;;;;;;5.95;1.20;;;;;;;;;;4911650;29;20079;-70
2023/10/19 01:42:17;;;;;;;3.20;0.80;;;;;;;;;;4913296;29;20107;-72
2023/10/19 01:45:55;;;;;;;6.00;1.42;;;;;;;;;;4906805;29;20088;-71
2023/10/19 01:49:37;;;;;;;5.75;1.23;;;;;;;;;;4909498;29;20040;-71
2023/10/19 01:53:16;;;;;;;6.50;1.30;;;;;;;;;;4913145;29;20055;-70
2023/10/19 01:56:56;;;;;;;6.95;1.05;;;;;;;;;;4912632;29;20516;-70
2023/10/19 02:00:37;;;;;;;4.38;1.10;;;;;;;;;;4910777;29;20143;-69
2023/10/19 02:04:21;;;;;;;5.30;1.13;;;;;;;;;;4910414;29;20143;-70
2023/10/19 02:08:00;;;;;;;6.35;1.38;;;;;;;;;;4910652;29;20088;-70
2023/10/19 02:11:41;;;;;;;3.83;0.82;;;;;;;;;;4911178;29;20052;-71
2023/10/19 02:15:22;;;;;;;4.22;1.02;;;;;;;;;;4909408;29;20047;-71
2023/10/19 02:19:04;;;;;;;6.05;1.00;;;;;;;;;;4906962;29;20147;-72
2023/10/19 02:22:44;;;;;;;4.47;1.02;;;;;;;;;;4913117;29;20048;-71
2023/10/19 02:26:27;;;;;;;3.15;0.80;;;;;;;;;;4912095;29;20084;-71
2023/10/19 02:30:06;;;;;;;6.47;1.05;;;;;;;;;;4905136;29;20051;-69
2023/10/19 02:33:46;;;;;;;7.03;1.10;;;;;;;;;;4913715;29;20074;-70
2023/10/19 02:37:27;;;;;;;5.32;1.00;;;;;;;;;;4914826;29;20114;-71
2023/10/19 02:41:09;;;;;;;8.18;1.30;;;;;;;;;;4904865;29;20422;-70
2023/10/19 02:44:50;;;;;;;3.35;0.95;;;;;;;;;;4910779;29;20044;-71
2023/10/19 02:48:28;;;;;;;4.97;1.48;;;;;;;;;;4911553;29;20389;-71
2023/10/19 02:52:10;;;;;;;3.65;1.05;;;;;;;;;;4911086;29;20039;-71
2023/10/19 02:55:51;;;;;;;4.32;1.08;;;;;;;;;;4911500;29;20044;-70
2023/10/19 02:59:29;;;;;;;5.70;1.13;;;;;;;;;;4909694;29;20315;-70
2023/10/19 03:03:10;;;;;;;9.00;1.33;;;;;;;;;;4922680;29;20059;-70
2023/10/19 03:06:52;;;;;;;3.70;0.88;;;;;;;;;;4908046;29;20385;-69
2023/10/19 03:10:42;;;;;;;6.85;1.00;;;;;;;;;;4909171;29;20048;-71
2023/10/19 03:14:25;;;;;;;4.13;1.00;;;;;;;;;;4907234;29;20052;-70
2023/10/19 03:18:04;;;;;;;3.65;0.88;;;;;;;;;;4913689;29;20048;-70
2023/10/19 03:21:48;;;;;;;7.90;0.98;;;;;;;;;;4906686;29;20662;-69
2023/10/19 03:29:08;;;;;;;6.03;1.02;;;;;;;;;;4907089;29;20062;-70
2023/10/19 03:32:43;;;;;;;6.10;1.08;;;;;;;;;;4905446;29;20043;-69
2023/10/19 03:36:24;;;;;;;3.70;1.17;;;;;;;;;;4905781;29;20577;-70
2023/10/19 03:40:09;;;;;;;3.92;1.10;;;;;;;;;;4909032;29;20131;-72
2023/10/19 03:43:47;;;;;;;4.75;1.00;;;;;;;;;;4907817;29;20084;-71
2023/10/19 03:47:34;;;;;;;3.35;1.20;;;;;;;;;;4911285;29;20130;-71
2023/10/19 03:51:12;;;;;;;4.95;1.13;;;;;;;;;;4906546;29;20050;-71
2023/10/19 03:54:48;;;;;;;7.57;0.98;;;;;;;;;;4915722;29;20075;-71
2023/10/19 03:58:30;;;;;;;4.13;1.00;;;;;;;;;;4919650;29;20392;-71
2023/10/19 04:02:16;;;;;;;4.28;1.13;;;;;;;;;;4919590;29;20044;-70
2023/10/19 04:05:55;;;;;;;4.15;0.88;;;;;;;;;;4903241;29;20052;-70
2023/10/19 04:09:37;;;;;;;3.83;1.08;;;;;;;;;;4906906;29;20123;-70
2023/10/19 04:13:16;;;;;;;2.50;0.88;;;;;;;;;;4909040;29;20076;-71
2023/10/19 04:16:56;;;;;;;4.72;0.85;;;;;;;;;;4905027;29;20056;-71
2023/10/19 04:20:54;;;;;;;4.20;1.10;;;;;;;;;;4908217;29;20052;-70
2023/10/19 04:24:23;;;;;;;6.25;0.85;;;;;;;;;;4905726;29;20135;-71
2023/10/19 04:28:04;;;;;;;5.20;0.70;;;;;;;;;;4909898;29;20052;-72
2023/10/19 04:31:54;;;;;;;4.88;0.90;;;;;;;;;;4901091;29;20051;-72
2023/10/19 04:35:34;;;;;;;4.78;1.15;;;;;;;;;;4909173;29;20052;-72
2023/10/19 04:39:13;;;;;;;2.60;0.70;;;;;;;;;;4909483;29;20056;-74
2023/10/19 04:42:12;;;;;;;3.90;0.93;;;;;;;;;;4908712;29;20052;-70
2023/10/19 04:44:39;;;;;;;3.30;1.10;;;;;;;;;;4906431;29;20160;-71
2023/10/19 04:47:05;;;;;;;3.35;0.98;;;;;;;;;;4897332;29;20056;-72
2023/10/19 04:50:11;;;;;;;2.72;0.85;;;;;;;;;;4903105;29;20060;-69
2023/10/19 04:53:52;;;;;;;6.18;1.23;;;;;;;;;;4906976;29;20500;-70
2023/10/19 04:57:32;;;;;;;4.78;1.00;;;;;;;;;;4905156;29;20063;-71
2023/10/19 05:01:12;;;;;;;3.65;1.00;;;;;;;;;;4916357;29;20346;-71
2023/10/19 05:04:53;;;;;;;4.07;1.10;;;;;;;;;;4912108;29;20044;-71
2023/10/19 05:08:33;;;;;;;6.13;1.30;;;;;;;;;;4911300;29;20052;-71
2023/10/19 05:12:14;;;;;;;10.18;1.23;;;;;;;;;;4910174;29;20048;-71
2023/10/19 05:15:54;;;;;;;6.57;1.13;;;;;;;;;;4920964;29;20056;-71
2023/10/19 05:19:35;;;;;;;5.07;1.30;;;;;;;;;;4913133;29;20110;-71
2023/10/19 05:23:16;;;;;;;6.50;1.23;;;;;;;;;;4907373;29;20103;-69
2023/10/19 05:26:57;;;;;;;8.98;1.10;;;;;;;;;;4907928;29;20131;-73
2023/10/19 05:30:38;;;;;;;7.10;1.17;;;;;;;;;;4907243;29;20044;-72
2023/10/19 05:34:18;;;;;;;2.88;0.80;;;;;;;;;;4908574;29;20528;-72
2023/10/19 05:37:58;;;;;;;4.70;0.90;;;;;;;;;;4907226;29;20060;-72
2023/10/19 05:41:40;;;;;;;6.20;1.08;;;;;;;;;;4909291;29;20048;-72
2023/10/19 05:45:20;;;;;;;7.22;1.08;;;;;;;;;;4909303;29;20171;-71
2023/10/19 05:49:03;;;;;;;8.88;1.58;;;;;;;;;;4913000;29;20235;-71
2023/10/19 05:52:42;;;;;;;11.93;1.45;;;;;;;;;;4908056;29;20108;-73
2023/10/19 05:56:21;;;;;;;2.35;0.90;;;;;;;;;;4908272;29;20115;-70
2023/10/19 06:00:05;;;;;;;3.42;1.05;;;;;;;;;;4909052;29;20056;-70
2023/10/19 06:03:43;;;;;;;5.20;1.17;;;;;;;;;;4908745;29;20051;-72
2023/10/19 06:07:24;;;;;;;10.63;1.60;;;;;;;;;;4906913;29;20048;-70
2023/10/19 06:11:06;;;;;;;8.23;1.80;;;;;;;;;;4910467;29;20036;-77
2023/10/19 06:14:46;;;;;;;8.60;2.40;;;;;;;;;;4908185;29;20547;-71
2023/10/19 06:18:26;;;;;;;7.35;1.30;;;;;;;;;;4915759;29;20277;-66
2023/10/19 06:22:09;;;;;;;9.95;1.70;;;;;;;;;;4911092;29;20479;-71
2023/10/19 06:25:51;;;;;;;8.57;1.70;;;;;;;;;;4904293;29;20467;-73
2023/10/19 06:29:31;;;;;;;5.20;1.45;;;;;;;;;;4916366;29;20131;-74
2023/10/19 06:33:12;;;;;;;11.18;1.73;;;;;;;;;;4922190;29;20112;-74
2023/10/19 06:36:54;;;;;;;10.63;1.95;;;;;;;;;;4913148;29;20044;-70
2023/10/19 06:39:25;;;;;;;9.63;1.55;;;;;;;;;;4909989;29;20126;-70
2023/10/19 06:41:53;;;;;;;12.95;2.03;;;;;;;;;;4891026;29;20143;-71
2023/10/19 06:44:22;;;;;;;11.35;1.42;;;;;;;;;;4914993;29;20511;-70
2023/10/19 06:47:30;;;;;;;9.18;1.40;;;;;;;;;;4897015;29;20134;-62
2023/10/19 06:51:12;;;;;;;4.63;1.45;;;;;;;;;;4912267;29;20480;-67
2023/10/19 06:54:53;;;;;;;7.43;1.60;;;;;;;;;;4912917;29;20035;-77
2023/10/19 06:58:34;;;;;;;8.88;1.58;;;;;;;;;;4919826;29;20107;-81
2023/10/19 07:02:14;;;;;;;6.68;1.67;;;;;;;;;;4907752;29;20147;-75
2023/10/19 07:05:54;;;;;;;9.52;1.77;;;;;;;;;;4919153;29;20095;-75
2023/10/19 07:09:37;;;;;;;7.68;2.47;;;;;;;;;;4913885;29;20048;-74
2023/10/19 07:13:20;;;;;;;9.68;1.50;;;;;;;;;;4917942;29;20048;-73
2023/10/19 07:16:59;;;;;;;8.65;1.73;;;;;;;;;;4901386;29;20052;-74
2023/10/19 07:20:39;;;;;;;8.95;2.00;;;;;;;;;;4905183;29;20056;-75
2023/10/19 07:24:23;;;;;;;6.70;1.80;;;;;;;;;;4915447;29;20499;-73
2023/10/19 07:28:01;;;;;;;8.88;1.95;;;;;;;;;;4911000;29;20118;-73
2023/10/19 07:31:41;;;;;;;7.45;1.63;;;;;;;;;;4911726;29;20056;-77
2023/10/19 07:35:22;;;;;;;7.10;1.95;;;;;;;;;;4908565;29;20526;-76
2023/10/19 07:39:02;;;;;;;12.45;2.30;;;;;;;;;;4913310;29;20055;-78
2023/10/19 07:42:43;;;;;;;6.60;2.00;;;;;;;;;;4908703;29;20082;-76
2023/10/19 07:46:28;;;;;;;10.35;2.20;;;;;;;;;;4910855;29;20115;-77
2023/10/19 07:50:12;;;;;;;7.18;1.70;;;;;;;;;;4910165;29;20043;-76
2023/10/19 07:53:48;;;;;;;8.93;1.50;;;;;;;;;;4910459;29;20062;-76
2023/10/19 07:57:29;;;;;;;7.13;1.42;;;;;;;;;;4910172;29;20048;-76
2023/10/19 08:01:09;;;;;;;7.32;1.52;;;;;;;;;;4903530;29;20060;-76
2023/10/19 08:04:51;;;;;;;7.35;2.35;;;;;;;;;;4914971;29;20112;-76
2023/10/19 08:08:34;;;;;;;11.35;1.88;;;;;;;;;;4910511;29;20093;-75
2023/10/19 08:12:14;;;;;;;11.55;2.00;;;;;;;;;;4909101;29;20040;-74
2023/10/19 08:15:55;;;;;;;10.98;2.35;;;;;;;;;;4907391;29;20513;-74
2023/10/19 08:19:35;;;;;;;12.07;1.77;;;;;;;;;;4910826;29;20059;-78
2023/10/19 08:23:16;;;;;;;8.68;1.80;;;;;;;;;;4910812;29;20052;-77
2023/10/19 08:26:56;;;;;;;14.15;1.90;;;;;;;;;;4901440;29;20055;-76
2023/10/19 08:30:40;;;;;;;7.53;2.00;;;;;;;;;;4906645;29;20107;-77
2023/10/19 08:34:20;;;;;;;10.35;2.03;;;;;;;;;;4916674;29;20048;-79
2023/10/19 08:38:00;;;;;;;10.80;2.10;;;;;;;;;;4904261;29;20250;-82
2023/10/19 08:41:40;;;;;;;7.65;2.08;;;;;;;;;;4921760;29;20052;-80
2023/10/19 08:44:25;;;;;;;10.48;2.10;;;;;;;;;;4910898;29;20508;-80
2023/10/19 08:46:51;;;;;;;9.23;2.22;;;;;;;;;;4931431;29;20059;-81
2023/10/19 08:49:19;;;;;;;6.72;2.40;;;;;;;;;;4906337;29;20075;-80
2023/10/19 08:51:46;;;;;;;20.40;2.72;;;;;;;;;;4927829;29;20056;-78
2023/10/19 08:54:14;;;;;;;14.45;3.15;;;;;;;;;;4923646;29;20062;-80
2023/10/19 08:56:41;;;;;;;8.93;2.88;;;;;;;;;;4927979;29;20048;-82
2023/10/19 08:59:10;;;;;;;12.75;2.72;;;;;;;;;;4933866;29;20103;-81
2023/10/19 09:01:37;;;;;;;9.30;2.88;;;;;;;;;;4932924;29;20056;-80
2023/10/19 09:04:08;;;;;;;9.80;2.97;;;;;;;;;;4923183;29;20366;-83
2023/10/19 09:06:45;;;;;;;9.77;2.60;;;;;;;;;;4918620;29;20056;-76
2023/10/19 09:09:25;;;;;;;7.72;3.17;;;;;;;;;;4915651;29;20045;-79
2023/10/19 09:11:54;;;;;;;14.15;3.38;;;;;;;;;;4918979;29;20044;-73
2023/10/19 09:14:35;;;;;;;11.95;3.22;;;;;;;;;;4914849;29;20056;-75
2023/10/19 09:17:03;;;;;;;10.85;3.50;;;;;;;;;;4897783;29;20110;-78
2023/10/19 09:19:41;;;;;;;19.25;3.72;;;;;;;;;;4915998;29;20412;-79
2023/10/19 09:22:24;;;;;;;8.73;3.20;;;;;;;;;;4914737;29;20119;-76
2023/10/19 09:24:53;;;;;;;10.13;2.95;;;;;;;;;;4914115;29;20091;-77
2023/10/19 09:27:21;;;;;;;15.55;3.55;;;;;;;;;;4890713;29;20047;-76
2023/10/19 09:30:29;;;;;;;10.73;2.83;;;;;;;;;;4898756;29;20059;-76
2023/10/19 09:34:11;;;;;;;13.38;3.55;;;;;;;;;;4915369;29;20412;-76
2023/10/19 09:37:50;;;;;;;8.23;2.50;;;;;;;;;;4911832;29;20115;-75
2023/10/19 09:41:34;;;;;;;11.30;3.13;;;;;;;;;;4912588;29;20127;-77
2023/10/19 09:45:16;;;;;;;12.32;5.13;;;;;;;;;;4915973;29;20055;-79
2023/10/19 09:48:56;;;;;;;17.30;6.00;;;;;;;;;;4900060;29;20044;-79
2023/10/19 09:52:37;;;;;;;15.60;5.88;;;;;;;;;;4902367;29;20325;-77
2023/10/19 09:56:18;;;;;;;13.27;5.32;;;;;;;;;;4908217;29;20056;-79
2023/10/19 10:00:23;;;;;;;14.60;5.65;;;;;;;;;;4911571;29;20084;-77
2023/10/19 10:04:07;;;;;;;14.18;3.65;;;;;;;;;;4911473;29;20040;-77
2023/10/19 10:07:46;;;;;;;10.85;4.40;;;;;;;;;;4908792;29;20048;-77
2023/10/19 10:11:34;;;;;;;18.83;6.47;;;;;;;;;;4910387;29;20044;-77
2023/10/19 10:15:18;;;;;;;20.83;8.05;;;;;;;;;;4909016;29;20635;-78
2023/10/19 10:18:58;;;;;;;14.40;6.53;;;;;;;;;;4904569;29;20052;-79
2023/10/19 10:22:42;;;;;;;26.58;8.50;;;;;;;;;;4906121;29;20532;-83
2023/10/19 10:26:24;;;;;;;18.08;8.43;;;;;;;;;;4906718;29;20066;-78
2023/10/19 10:30:18;;;;;;;17.70;6.13;;;;;;;;;;4909793;29;20055;-77
2023/10/19 10:34:00;;;;;;;13.77;6.38;;;;;;;;;;4912556;29;20060;-78
2023/10/19 10:37:43;;;;;;;22.27;6.40;;;;;;;;;;4904428;29;20379;-82
2023/10/19 10:41:31;;;;;;;11.95;4.45;;;;;;;;;;4910598;29;20058;-79
2023/10/19 10:45:12;;;;;;;11.50;3.58;;;;;;;;;;4911801;29;20089;-80
2023/10/19 10:48:52;;;;;;;9.88;2.80;;;;;;;;;;4916577;29;20048;-84
2023/10/19 10:52:33;;;;;;;16.80;3.42;;;;;;;;;;4917018;29;20052;-84
2023/10/19 10:56:13;;;;;;;8.02;3.60;;;;;;;;;;4919395;29;20078;-82
2023/10/19 10:59:53;;;;;;;15.70;3.47;;;;;;;;;;4916370;29;20036;-85
2023/10/19 11:03:43;;;;;;;13.30;4.00;;;;;;;;;;4923105;29;20047;-82
2023/10/19 11:07:14;;;;;;;17.35;4.15;;;;;;;;;;4915411;29;20131;-84
2023/10/19 11:10:55;;;;;;;16.58;4.70;;;;;;;;;;4921985;29;20048;-83
2023/10/19 11:14:34;;;;;;;16.60;5.68;;;;;;;;;;4916154;29;20055;-84
2023/10/19 11:18:18;;;;;;;16.05;5.78;;;;;;;;;;4914517;29;20052;-85
2023/10/19 11:21:59;;;;;;;13.77;5.47;;;;;;;;;;4912699;29;20052;-81
2023/10/19 11:25:39;;;;;;;10.50;3.30;;;;;;;;;;4926690;29;20075;-78
2023/10/19 11:29:19;;;;;;;10.68;3.50;;;;;;;;;;4929050;29;20117;-80
2023/10/19 11:33:01;;;;;;;8.88;3.83;;;;;;;;;;4915026;29;20111;-82
2023/10/19 11:36:41;;;;;;;10.15;3.58;;;;;;;;;;4915209;29;20477;-83
2023/10/19 11:40:21;;;;;;;13.23;2.90;;;;;;;;;;4884925;29;20105;-81
2023/10/19 11:44:02;;;;;;;10.57;2.75;;;;;;;;;;4877951;29;20048;-81
2023/10/19 11:47:42;;;;;;;5.80;2.88;;;;;;;;;;4874376;29;20052;-81
2023/10/19 11:51:23;;;;;;;8.05;2.50;;;;;;;;;;4881099;29;20067;-82
2023/10/19 11:55:05;;;;;;;8.32;2.70;;;;;;;;;;4878289;29;20052;-82
2023/10/19 11:58:46;;;;;;;15.93;2.60;;;;;;;;;;4874842;29;20072;-82
2023/10/19 12:02:24;;;;;;;10.60;2.40;;;;;;;;;;4877216;29;20049;-78
2023/10/19 12:06:06;;;;;;;7.65;2.15;;;;;;;;;;4875163;29;20148;-81
2023/10/19 12:09:46;;;;;;;7.32;1.88;;;;;;;;;;4878048;29;20590;-79
2023/10/19 12:13:26;;;;;;;5.68;2.40;;;;;;;;;;4869053;29;20098;-80
2023/10/19 12:17:07;;;;;;;7.05;1.73;;;;;;;;;;4872532;29;20458;-78
2023/10/19 12:20:48;;;;;;;5.63;1.85;;;;;;;;;;4877896;29;20362;-78
2023/10/19 12:24:29;;;;;;;7.40;1.73;;;;;;;;;;4872178;29;20056;-78
2023/10/19 12:28:13;;;;;;;9.02;2.08;;;;;;;;;;4872890;29;20426;-79
2023/10/19 12:31:49;;;;;;;5.50;1.70;;;;;;;;;;4869665;29;20390;-82
2023/10/19 12:35:44;;;;;;;11.15;1.70;;;;;;;;;;4874332;29;20068;-76
2023/10/19 12:39:16;;;;;;;5.40;1.30;;;;;;;;;;4904504;29;20678;-77
2023/10/19 12:42:50;;;;;;;8.35;1.00;;;;;;;;;;4909570;29;20056;-78
2023/10/19 12:46:31;;;;;;;5.68;0.90;;;;;;;;;;4906975;29;20040;-78
2023/10/19 12:50:12;;;;;;;6.65;0.57;;;;;;;;;;4918975;29;20135;-80
2023/10/19 12:53:52;;;;;;;4.60;0.85;;;;;;;;;;4906403;29;20056;-78
2023/10/19 12:57:32;;;;;;;1.15;0.70;;;;;;;;;;4919201;29;20170;-80
2023/10/19 13:01:21;;;;;;;5.10;1.00;;;;;;;;;;4904556;29;20046;-76
2023/10/19 13:04:53;;;;;;;3.97;0.80;;;;;;;;;;4912487;29;20115;-78
2023/10/19 13:08:33;;;;;;;5.60;1.02;;;;;;;;;;4901606;29;20151;-77
2023/10/19 13:12:15;;;;;;;3.47;0.90;;;;;;;;;;4910809;29;20086;-79
2023/10/19 13:15:55;;;;;;;9.32;1.40;;;;;;;;;;4909161;29;20624;-76
2023/10/19 13:18:55;;;;;;;4.05;0.70;;;;;;;;;;4913787;29;20048;-76
2023/10/19 13:21:22;;;;;;;4.10;0.98;;;;;;;;;;4908825;29;20515;-77
2023/10/19 13:23:48;;;;;;;2.95;0.73;;;;;;;;;;4920481;29;20067;-78
2023/10/19 13:26:17;;;;;;;6.55;1.05;;;;;;;;;;4915922;29;20080;-76
2023/10/19 13:28:45;;;;;;;5.03;1.08;;;;;;;;;;4915622;29;20056;-79
2023/10/19 13:31:14;;;;;;;6.78;1.27;;;;;;;;;;4917554;29;20113;-79
2023/10/19 13:33:45;;;;;;;7.88;0.82;;;;;;;;;;4915487;29;20271;-77
2023/10/19 13:36:15;;;;;;;11.85;1.00;;;;;;;;;;4888840;29;20060;-77
2023/10/19 13:38:43;;;;;;;7.38;1.50;;;;;;;;;;4911669;29;20116;-80
2023/10/19 13:41:09;;;;;;;4.72;1.38;;;;;;;;;;4897764;29;20056;-75
2023/10/19 13:43:36;;;;;;;6.15;1.63;;;;;;;;;;4896028;29;20075;-74
2023/10/19 13:46:04;;;;;;;4.03;1.05;;;;;;;;;;4912944;29;20098;-77
2023/10/19 13:48:33;;;;;;;7.25;0.80;;;;;;;;;;4913525;29;20338;-74
2023/10/19 13:51:12;;;;;;;7.30;1.65;;;;;;;;;;4914490;29;20123;-76
2023/10/19 13:53:44;;;;;;;11.63;1.17;;;;;;;;;;4919131;29;20110;-75
2023/10/19 13:56:16;;;;;;;9.82;1.50;;;;;;;;;;4914076;29;20122;-76
2023/10/19 13:58:42;;;;;;;10.80;1.40;;;;;;;;;;4919634;29;20052;-75
2023/10/19 14:01:10;;;;;;;9.90;1.33;;;;;;;;;;4919167;29;20051;-77
2023/10/19 14:03:37;;;;;;;16.35;2.00;;;;;;;;;;4914757;29;20051;-77
2023/10/19 14:06:03;;;;;;;8.27;1.73;;;;;;;;;;4894962;29;20051;-76
2023/10/19 14:08:30;;;;;;;9.00;2.65;;;;;;;;;;4912296;29;20490;-76
2023/10/19 14:11:04;;;;;;;14.02;6.95;;;;;;;;;;4910403;29;20080;-75
2023/10/19 14:13:31;;;;;;;23.05;10.35;;;;;;;;;;4911233;29;20480;-76
2023/10/19 14:15:57;;;;;;;20.25;8.80;;;;;;;;;;4911194;29;20059;-75
2023/10/19 14:18:23;;;;;;;23.70;5.78;;;;;;;;;;4913385;29;20059;-78
2023/10/19 14:20:49;;;;;;;16.15;6.03;;;;;;;;;;4911465;29;20048;-76
2023/10/19 14:23:15;;;;;;;20.75;5.57;;;;;;;;;;4896978;29;20334;-77
2023/10/19 14:25:42;;;;;;;13.15;4.40;;;;;;;;;;4915558;29;20112;-77
2023/10/19 14:28:09;;;;;;;19.42;4.03;;;;;;;;;;4914095;29;20060;-78
2023/10/19 14:30:36;;;;;;;11.98;3.70;;;;;;;;;;4913951;29;20409;-78
2023/10/19 14:33:05;;;;;;;14.80;4.55;;;;;;;;;;4915601;29;20056;-75
2023/10/19 14:35:35;;;;;;;10.63;2.70;;;;;;;;;;4915544;29;20266;-75
2023/10/19 14:38:01;;;;;;;10.85;3.10;;;;;;;;;;4915520;29;20465;-75
2023/10/19 14:40:29;;;;;;;13.32;3.63;;;;;;;;;;4910611;29;20051;-78
2023/10/19 14:42:56;;;;;;;14.15;4.53;;;;;;;;;;4919889;29;20052;-75
2023/10/19 14:45:28;;;;;;;16.85;4.30;;;;;;;;;;4894924;29;20072;-77
2023/10/19 14:47:55;;;;;;;7.90;2.88;;;;;;;;;;4910393;29;20043;-77
2023/10/19 14:51:02;;;;;;;16.35;4.68;;;;;;;;;;4907623;29;20048;-82
2023/10/19 14:54:43;;;;;;;17.08;7.85;;;;;;;;;;4907153;29;20048;-77
2023/10/19 14:58:29;;;;;;;16.75;6.43;;;;;;;;;;4909360;29;20059;-81
2023/10/19 15:01:25;;;;;;;20.65;5.53;;;;;;;;;;4900934;29;20051;-71
2023/10/19 15:03:56;;;;;;;19.95;5.35;;;;;;;;;;4907159;29;20040;-71
2023/10/19 15:06:22;;;;;;;12.43;4.50;;;;;;;;;;4903763;29;20138;-71
2023/10/19 15:08:49;;;;;;;15.80;4.43;;;;;;;;;;4898910;29;20501;-70
2023/10/19 15:11:21;;;;;;;15.63;4.82;;;;;;;;;;4908700;29;20406;-72
2023/10/19 15:13:48;;;;;;;11.98;3.90;;;;;;;;;;4912369;29;20848;-69
2023/10/19 15:16:14;;;;;;;11.77;2.78;;;;;;;;;;4902830;29;20123;-72
2023/10/19 15:18:43;;;;;;;9.18;2.45;;;;;;;;;;4910883;29;20048;-73
2023/10/19 15:21:11;;;;;;;8.70;1.60;;;;;;;;;;4915933;29;20489;-70
2023/10/19 15:23:38;;;;;;;10.73;2.20;;;;;;;;;;4910891;29;20056;-71
2023/10/19 15:26:04;;;;;;;11.13;2.30;;;;;;;;;;4893519;29;20083;-72
2023/10/19 15:28:33;;;;;;;8.77;2.38;;;;;;;;;;4915176;29;20058;-73
2023/10/19 15:31:01;;;;;;;8.65;2.28;;;;;;;;;;4923691;29;20412;-73
2023/10/19 15:33:28;;;;;;;11.70;2.05;;;;;;;;;;4896443;29;20070;-73
2023/10/19 15:35:55;;;;;;;4.95;1.33;;;;;;;;;;4900188;29;20059;-73
2023/10/19 15:38:22;;;;;;;9.20;1.70;;;;;;;;;;4902868;29;20530;-75
2023/10/19 15:40:49;;;;;;;6.35;1.30;;;;;;;;;;4913707;29;20055;-73
2023/10/19 15:43:16;;;;;;;6.53;1.20;;;;;;;;;;4899884;29;20047;-73
2023/10/19 15:45:45;;;;;;;3.85;0.90;;;;;;;;;;4905840;29;20045;-72
2023/10/19 15:48:13;;;;;;;11.02;1.48;;;;;;;;;;4910603;29;20051;-75
2023/10/19 15:50:42;;;;;;;11.00;2.20;;;;;;;;;;4909460;29;20698;-73
2023/10/19 15:53:08;;;;;;;12.73;4.55;;;;;;;;;;4912860;29;20044;-72
2023/10/19 15:55:35;;;;;;;20.25;7.43;;;;;;;;;;4906630;29;20059;-72
2023/10/19 15:58:05;;;;;;;22.23;10.52;;;;;;;;;;4917443;29;20059;-74
2023/10/19 16:00:30;;;;;;;35.92;15.80;;;;;;;;;;4905332;29;20044;-73
2023/10/19 16:02:57;;;;;;;42.03;17.98;;;;;;;;;;4907058;29;20047;-71
2023/10/19 16:05:23;;;;;;;43.25;20.42;;;;;;;;;;4920134;29;20430;-71
2023/10/19 16:07:51;;;;;;;55.08;21.17;;;;;;;;;;4919954;29;20122;-72
2023/10/19 16:10:18;;;;;;;52.67;21.48;;;;;;;;;;4910354;29;20509;-72
2023/10/19 16:12:48;;;;;;;52.40;24.25;;;;;;;;;;4901166;29;20064;-72
2023/10/19 16:15:16;;;;;;;55.78;24.45;;;;;;;;;;4912892;29;20048;-73
2023/10/19 16:17:43;;;;;;;48.78;23.33;;;;;;;;;;4901778;29;20056;-71
2023/10/19 16:20:12;;;;;;;45.33;19.95;;;;;;;;;;4918714;29;20110;-73
2023/10/19 16:22:39;;;;;;;35.53;16.55;;;;;;;;;;4915153;29;20048;-74
2023/10/19 16:25:06;;;;;;;37.25;13.95;;;;;;;;;;4899755;29;20060;-71
2023/10/19 16:27:33;;;;;;;25.55;11.45;;;;;;;;;;4904196;29;20040;-72
2023/10/19 16:30:00;;;;;;;25.08;8.18;;;;;;;;;;4909195;29;20430;-72
2023/10/19 16:32:30;;;;;;;25.10;8.00;;;;;;;;;;4897161;29;20062;-72
2023/10/19 16:34:56;;;;;;;16.27;5.30;;;;;;;;;;4909902;29;20052;-70
2023/10/19 16:37:34;;;;;;;16.58;4.70;;;;;;;;;;4914128;29;20468;-71
2023/10/19 16:40:00;;;;;;;14.93;5.00;;;;;;;;;;4912543;29;20365;-70
2023/10/19 16:42:28;;;;;;;22.50;7.63;;;;;;;;;;4909374;29;20614;-74
2023/10/19 16:44:55;;;;;;;24.13;9.25;;;;;;;;;;4916203;29;20421;-71
2023/10/19 16:47:22;;;;;;;22.85;9.27;;;;;;;;;;4921102;29;20365;-72
2023/10/19 16:49:49;;;;;;;16.13;6.13;;;;;;;;;;4913032;29;20455;-73
2023/10/19 16:52:16;;;;;;;15.13;5.93;;;;;;;;;;4915746;29;20060;-73
2023/10/19 16:54:43;;;;;;;15.60;5.20;;;;;;;;;;4918716;29;20048;-72
2023/10/19 16:57:09;;;;;;;16.05;4.43;;;;;;;;;;4909718;29;20063;-73
2023/10/19 16:59:36;;;;;;;22.27;5.20;;;;;;;;;;4918768;29;20131;-75
2023/10/19 17:02:04;;;;;;;27.20;5.25;;;;;;;;;;4899094;29;20059;-74
2023/10/19 17:04:32;;;;;;;13.68;3.78;;;;;;;;;;4917101;29;20130;-73
2023/10/19 17:06:58;;;;;;;10.98;3.30;;;;;;;;;;4910501;29;20048;-72
2023/10/19 17:09:25;;;;;;;12.88;2.80;;;;;;;;;;4920388;29;20064;-72
2023/10/19 17:11:53;;;;;;;8.15;2.65;;;;;;;;;;4913335;29;20091;-74
2023/10/19 17:14:23;;;;;;;8.90;2.20;;;;;;;;;;4914454;29;20103;-73
2023/10/19 17:16:51;;;;;;;6.93;1.63;;;;;;;;;;4896436;29;20135;-73
2023/10/19 17:19:17;;;;;;;9.70;1.55;;;;;;;;;;4910100;29;20075;-72
2023/10/19 17:21:46;;;;;;;3.88;1.23;;;;;;;;;;4893129;29;20513;-73
2023/10/19 17:24:12;;;;;;;15.80;1.40;;;;;;;;;;4903826;29;20079;-74
2023/10/19 17:26:41;;;;;;;3.45;1.30;;;;;;;;;;4917304;29;20048;-73
2023/10/19 17:29:09;;;;;;;5.30;1.27;;;;;;;;;;4903722;29;20056;-67
2023/10/19 17:31:37;;;;;;;11.00;1.25;;;;;;;;;;4909747;29;20064;-72
2023/10/19 17:34:02;;;;;;;7.32;0.95;;;;;;;;;;4911364;29;20051;-69
2023/10/19 17:36:33;;;;;;;10.30;1.58;;;;;;;;;;4913338;29;20064;-70
2023/10/19 17:39:03;;;;;;;4.97;1.00;;;;;;;;;;4889691;29;20064;-69
2023/10/19 17:41:30;;;;;;;7.40;1.10;;;;;;;;;;4892393;29;20107;-71
2023/10/19 17:43:57;;;;;;;5.22;1.10;;;;;;;;;;4889135;29;20057;-69
2023/10/19 17:46:23;;;;;;;8.30;1.67;;;;;;;;;;4894420;29;20061;-71
2023/10/19 17:48:49;;;;;;;10.35;1.98;;;;;;;;;;4892329;29;20405;-70
2023/10/19 17:51:16;;;;;;;12.50;2.50;;;;;;;;;;4891896;29;20075;-71
2023/10/19 17:53:43;;;;;;;8.98;2.63;;;;;;;;;;4891279;29;20143;-72
2023/10/19 17:56:18;;;;;;;13.70;2.33;;;;;;;;;;4891438;29;20060;-72
2023/10/19 17:58:45;;;;;;;7.13;2.05;;;;;;;;;;4889994;29;20044;-72
2023/10/19 18:01:35;;;;;;;8.13;1.80;;;;;;;;;;4897689;29;20052;-70
2023/10/19 18:04:04;;;;;;;7.32;1.40;;;;;;;;;;4895558;29;20072;-68
2023/10/19 18:06:33;;;;;;;4.28;1.30;;;;;;;;;;4895369;29;20053;-71
2023/10/19 18:09:00;;;;;;;4.90;1.00;;;;;;;;;;4892427;29;20051;-72
2023/10/19 18:11:28;;;;;;;3.30;1.13;;;;;;;;;;4892720;29;20040;-70
2023/10/19 18:13:55;;;;;;;2.22;0.90;;;;;;;;;;4895545;29;20051;-70
2023/10/19 18:16:24;;;;;;;5.68;1.40;;;;;;;;;;4894045;29;20203;-72
2023/10/19 18:18:51;;;;;;;5.05;1.50;;;;;;;;;;4897809;29;20281;-69
2023/10/19 18:21:18;;;;;;;4.95;1.10;;;;;;;;;;4895999;29;20045;-71
2023/10/19 18:23:46;;;;;;;5.40;0.85;;;;;;;;;;4915164;29;20062;-73
2023/10/19 18:26:15;;;;;;;5.20;1.08;;;;;;;;;;4893219;29;20162;-71
2023/10/19 18:28:47;;;;;;;6.72;1.00;;;;;;;;;;4902324;29;20461;-69
2023/10/19 18:31:17;;;;;;;9.52;1.00;;;;;;;;;;4891611;29;20051;-70
2023/10/19 18:33:43;;;;;;;6.50;0.93;;;;;;;;;;4896472;29;20103;-72
2023/10/19 18:36:10;;;;;;;8.65;1.35;;;;;;;;;;4873537;29;20060;-71
2023/10/19 18:38:41;;;;;;;3.83;1.55;;;;;;;;;;4907387;29;20080;-73
2023/10/19 18:41:08;;;;;;;8.60;1.40;;;;;;;;;;4909610;29;20473;-70